createdAt,value
2023-01-07T00:00:25.294Z,2.92
2023-01-07T00:03:02.353Z,2.90
2023-01-07T00:05:30.577Z,2.70
2023-01-07T00:08:00.381Z,2.58
2023-01-07T00:10:28.693Z,3.63
2023-01-07T00:12:59.028Z,2.95
2023-01-07T00:15:27.403Z,2.67
2023-01-07T00:17:55.922Z,3.15
2023-01-07T00:20:25.177Z,2.85
2023-01-07T00:22:53.480Z,2.40
2023-01-07T00:25:21.862Z,2.70
2023-01-07T00:27:53.264Z,2.58
2023-01-07T00:30:23.035Z,2.58
2023-01-07T00:33:05.130Z,3.13
2023-01-07T00:35:34.352Z,2.53
2023-01-07T00:38:02.552Z,3.28
2023-01-07T00:40:32.223Z,2.50
2023-01-07T00:43:05.192Z,3.17
2023-01-07T00:45:37.905Z,2.92
2023-01-07T00:48:06.803Z,2.72
2023-01-07T00:50:36.782Z,2.70
2023-01-07T00:53:05.794Z,2.63
2023-01-07T00:55:34.204Z,2.50
2023-01-07T00:58:02.420Z,2.83
2023-01-07T01:00:30.783Z,3.15
2023-01-07T01:03:00.517Z,2.88
2023-01-07T01:05:28.631Z,3.13
2023-01-07T01:07:56.908Z,2.97
2023-01-07T01:10:25.102Z,2.92
2023-01-07T01:12:53.529Z,2.80
2023-01-07T01:15:21.827Z,2.90
2023-01-07T01:17:52.239Z,2.80
2023-01-07T01:20:22.512Z,2.55
2023-01-07T01:22:50.796Z,2.22
2023-01-07T01:25:19.109Z,2.97
2023-01-07T01:27:47.250Z,2.70
2023-01-07T01:30:15.316Z,2.72
2023-01-07T01:32:43.658Z,2.33
2023-01-07T01:35:11.785Z,2.20
2023-01-07T01:37:41.273Z,2.70
2023-01-07T01:40:10.872Z,2.60
2023-01-07T01:42:39.080Z,2.28
2023-01-07T01:45:08.272Z,2.30
2023-01-07T01:47:39.944Z,2.58
2023-01-07T01:50:14.658Z,2.67
2023-01-07T01:52:48.735Z,2.70
2023-01-07T01:55:20.032Z,2.90
2023-01-07T01:57:50.176Z,3.08
2023-01-07T02:00:18.437Z,3.40
2023-01-07T02:02:50.100Z,2.65
2023-01-07T02:05:18.660Z,2.75
2023-01-07T02:07:48.198Z,3.75
2023-01-07T02:10:19.452Z,4.63
2023-01-07T02:13:18.876Z,3.40
2023-01-07T02:15:55.333Z,3.10
2023-01-07T02:18:40.821Z,3.30
2023-01-07T02:21:18.953Z,3.40
2023-01-07T02:24:32.822Z,3.42
2023-01-07T02:27:23.097Z,3.75
2023-01-07T02:30:35.364Z,3.97
2023-01-07T02:33:17.717Z,3.70
2023-01-07T02:35:59.301Z,3.75
2023-01-07T02:38:35.454Z,4.50
2023-01-07T02:41:11.725Z,4.32
2023-01-07T02:43:51.494Z,4.35
2023-01-07T02:46:24.759Z,5.32
2023-01-07T02:48:54.281Z,5.25
2023-01-07T02:51:32.117Z,5.15
2023-01-07T02:54:00.837Z,5.13
2023-01-07T02:56:38.021Z,4.95
2023-01-07T02:59:37.727Z,4.88
2023-01-07T03:02:31.031Z,4.93
2023-01-07T03:05:28.792Z,4.68
2023-01-07T03:08:16.480Z,4.90
2023-01-07T03:10:51.137Z,4.45
2023-01-07T03:13:23.897Z,5.22
2023-01-07T03:15:57.373Z,4.68
2023-01-07T03:18:30.198Z,4.55
2023-01-07T03:21:05.012Z,3.97
2023-01-07T03:23:37.128Z,4.32
2023-01-07T03:26:09.098Z,4.10
2023-01-07T03:28:41.581Z,3.72
2023-01-07T03:31:12.790Z,4.70
2023-01-07T03:33:46.833Z,4.03
2023-01-07T03:36:19.306Z,4.00
2023-01-07T03:38:49.370Z,4.15
2023-01-07T03:41:31.385Z,3.67
2023-01-07T03:43:59.680Z,3.83
2023-01-07T03:46:27.928Z,4.28
2023-01-07T03:48:57.364Z,3.83
2023-01-07T03:51:26.827Z,3.90
2023-01-07T03:53:57.348Z,4.13
2023-01-07T03:56:25.436Z,4.00
2023-01-07T03:58:53.559Z,3.92
2023-01-07T04:01:21.745Z,3.97
2023-01-07T04:03:49.951Z,3.63
2023-01-07T04:06:19.214Z,3.90
2023-01-07T04:08:48.684Z,3.75
2023-01-07T04:11:16.848Z,3.83
2023-01-07T04:13:44.889Z,4.40
2023-01-07T04:16:14.136Z,3.75
2023-01-07T04:18:42.496Z,3.90
2023-01-07T04:21:10.566Z,3.90
2023-01-07T04:23:42.226Z,4.10
2023-01-07T04:26:11.664Z,3.75
2023-01-07T04:28:42.727Z,3.83
2023-01-07T04:31:11.977Z,3.85
2023-01-07T04:33:40.146Z,3.72
2023-01-07T04:36:08.777Z,3.40
2023-01-07T04:38:36.835Z,3.90
2023-01-07T04:41:05.086Z,4.10
2023-01-07T04:43:35.327Z,4.30
2023-01-07T04:46:03.935Z,4.10
2023-01-07T04:48:32.127Z,3.88
2023-01-07T04:51:00.607Z,4.65
2023-01-07T04:53:28.675Z,4.30
2023-01-07T04:55:56.744Z,4.50
2023-01-07T04:58:25.180Z,5.10
2023-01-07T05:00:58.251Z,4.60
2023-01-07T05:03:26.783Z,4.93
2023-01-07T05:05:54.844Z,4.75
2023-01-07T05:08:22.987Z,4.90
2023-01-07T05:10:51.329Z,4.63
2023-01-07T05:13:20.675Z,4.70
2023-01-07T05:15:49.332Z,4.80
2023-01-07T05:18:18.826Z,5.55
2023-01-07T05:20:47.634Z,4.18
2023-01-07T05:23:15.720Z,4.35
2023-01-07T05:25:44.012Z,5.00
2023-01-07T05:28:12.903Z,4.72
2023-01-07T05:30:41.091Z,4.63
2023-01-07T05:33:09.410Z,5.50
2023-01-07T05:35:38.981Z,4.57
2023-01-07T05:38:07.023Z,4.55
2023-01-07T05:40:35.147Z,4.90
2023-01-07T05:43:03.181Z,5.32
2023-01-07T05:45:31.213Z,5.20
2023-01-07T05:47:59.361Z,5.20
2023-01-07T05:50:27.533Z,5.13
2023-01-07T05:52:56.959Z,5.30
2023-01-07T05:55:25.022Z,4.90
2023-01-07T05:57:53.073Z,4.93
2023-01-07T06:00:21.196Z,5.18
2023-01-07T06:02:50.424Z,4.50
2023-01-07T06:05:18.579Z,4.80
2023-01-07T06:07:47.383Z,5.68
2023-01-07T06:10:16.994Z,5.20
2023-01-07T06:12:45.074Z,4.43
2023-01-07T06:15:13.427Z,5.15
2023-01-07T06:17:41.499Z,4.65
2023-01-07T06:20:11.034Z,5.03
2023-01-07T06:22:39.089Z,4.28
2023-01-07T06:25:07.496Z,4.93
2023-01-07T06:27:36.957Z,4.85
2023-01-07T06:30:05.857Z,4.50
2023-01-07T06:32:37.772Z,4.35
2023-01-07T06:35:06.982Z,4.20
2023-01-07T06:37:35.377Z,4.57
2023-01-07T06:40:03.568Z,4.30
2023-01-07T06:42:31.701Z,4.03
2023-01-07T06:45:01.241Z,3.92
2023-01-07T06:47:29.315Z,4.45
2023-01-07T06:49:57.496Z,3.90
2023-01-07T06:52:25.542Z,4.03
2023-01-07T06:54:53.620Z,3.70
2023-01-07T06:57:21.702Z,4.50
2023-01-07T06:59:49.765Z,4.43
2023-01-07T07:02:22.631Z,4.10
2023-01-07T07:04:51.891Z,4.15
2023-01-07T07:07:20.122Z,4.70
2023-01-07T07:09:48.515Z,4.05
2023-01-07T07:12:16.562Z,4.28
2023-01-07T07:14:44.670Z,3.90
2023-01-07T07:17:13.053Z,7.45
2023-01-07T07:19:42.593Z,5.88
2023-01-07T07:22:10.810Z,5.63
2023-01-07T07:24:38.950Z,4.65
2023-01-07T07:27:07.034Z,4.75
2023-01-07T07:29:35.216Z,5.15
2023-01-07T07:32:03.406Z,4.38
2023-01-07T07:34:31.440Z,5.28
2023-01-07T07:37:00.863Z,5.00
2023-01-07T07:39:29.023Z,5.10
2023-01-07T07:41:57.060Z,4.85
2023-01-07T07:44:25.152Z,5.55
2023-01-07T07:46:53.321Z,4.53
2023-01-07T07:49:21.545Z,4.28
2023-01-07T07:51:49.595Z,5.30
2023-01-07T07:54:19.022Z,4.32
2023-01-07T07:56:47.174Z,4.85
2023-01-07T07:59:15.233Z,5.15
2023-01-07T08:01:43.365Z,5.20
2023-01-07T08:04:11.486Z,4.30
2023-01-07T08:06:39.563Z,4.50
2023-01-07T08:09:07.836Z,4.40
2023-01-07T08:11:37.329Z,4.68
2023-01-07T08:14:05.378Z,4.63
2023-01-07T08:16:33.924Z,4.50
2023-01-07T08:19:01.965Z,3.95
2023-01-07T08:21:30.042Z,4.45
2023-01-07T08:23:58.096Z,4.72
2023-01-07T08:26:26.147Z,4.20
2023-01-07T08:28:55.618Z,4.55
2023-01-07T08:31:23.862Z,3.90
2023-01-07T08:33:51.942Z,4.55
2023-01-07T08:36:23.720Z,4.15
2023-01-07T08:38:52.943Z,4.03
2023-01-07T08:41:21.459Z,4.10
2023-01-07T08:43:50.375Z,4.22
2023-01-07T08:46:19.932Z,4.30
2023-01-07T08:48:48.004Z,4.55
2023-01-07T08:51:16.268Z,3.92
2023-01-07T08:53:44.463Z,3.88
2023-01-07T08:56:12.529Z,4.40
2023-01-07T08:58:40.573Z,4.32
2023-01-07T09:01:09.310Z,3.97
2023-01-07T09:03:39.761Z,3.85
2023-01-07T09:06:08.539Z,3.58
2023-01-07T09:08:36.646Z,4.00
2023-01-07T09:11:05.098Z,4.07
2023-01-07T09:13:33.233Z,3.17
2023-01-07T09:16:01.467Z,3.58
2023-01-07T09:18:30.584Z,3.78
2023-01-07T09:21:02.440Z,3.08
2023-01-07T09:23:30.636Z,3.55
2023-01-07T09:25:58.694Z,3.22
2023-01-07T09:28:26.797Z,3.70
2023-01-07T09:30:56.836Z,3.70
2023-01-07T09:33:25.101Z,3.72
2023-01-07T09:35:53.348Z,3.67
2023-01-07T09:38:22.843Z,3.35
2023-01-07T09:40:51.270Z,3.40
2023-01-07T09:43:59.949Z,3.50
2023-01-07T09:46:22.193Z,3.55
2023-01-07T09:48:56.436Z,3.67
2023-01-07T09:51:28.515Z,4.07
2023-01-07T09:54:01.426Z,3.72
2023-01-07T09:56:32.187Z,3.70
2023-01-07T09:59:02.084Z,3.38
2023-01-07T10:01:37.391Z,3.78
2023-01-07T10:04:20.204Z,4.43
2023-01-07T10:06:58.317Z,3.70
2023-01-07T10:09:37.155Z,3.75
2023-01-07T10:12:13.880Z,3.65
2023-01-07T10:15:03.379Z,3.00
2023-01-07T10:17:44.366Z,3.20
2023-01-07T10:20:19.355Z,3.38
2023-01-07T10:22:52.401Z,3.35
2023-01-07T10:25:25.565Z,3.25
2023-01-07T10:27:57.122Z,2.65
2023-01-07T10:30:30.920Z,3.63
2023-01-07T10:33:12.728Z,3.28
2023-01-07T10:35:41.879Z,3.17
2023-01-07T10:38:16.375Z,5.32
2023-01-07T10:40:50.012Z,3.50
2023-01-07T10:43:29.502Z,3.05
2023-01-07T10:46:16.898Z,3.97
2023-01-07T10:49:08.280Z,3.38
2023-01-07T10:52:03.755Z,4.15
2023-01-07T10:54:59.748Z,5.53
2023-01-07T10:57:31.351Z,3.55
2023-01-07T11:00:03.899Z,3.50
2023-01-07T11:02:32.329Z,4.40
2023-01-07T11:05:00.884Z,5.30
2023-01-07T11:07:35.572Z,5.18
2023-01-07T11:10:06.517Z,4.18
2023-01-07T11:58:31.002Z,3.58
2023-01-07T12:01:25.597Z,3.30
2023-01-07T12:04:14.644Z,3.70
2023-01-07T12:06:47.632Z,4.22
2023-01-07T12:09:25.933Z,3.97
2023-01-07T12:11:56.195Z,3.65
2023-01-07T12:14:31.780Z,3.85
2023-01-07T12:17:13.356Z,4.35
2023-01-07T12:20:14.659Z,3.95
2023-01-07T12:22:50.491Z,4.22
2023-01-07T12:25:45.508Z,4.28
2023-01-07T12:28:16.697Z,3.78
2023-01-07T12:31:08.403Z,4.28
2023-01-07T12:33:54.281Z,3.92
2023-01-07T12:36:33.156Z,3.90
2023-01-07T12:39:15.534Z,3.72
2023-01-07T12:41:50.451Z,4.25
2023-01-07T12:44:22.891Z,9.25
2023-01-07T12:47:30.932Z,4.57
2023-01-07T12:50:00.008Z,5.63
2023-01-07T12:52:39.628Z,4.10
2023-01-07T12:55:20.843Z,4.55
2023-01-07T12:58:05.307Z,4.53
2023-01-07T13:00:55.252Z,4.32
2023-01-07T13:03:36.008Z,4.20
2023-01-07T13:06:17.182Z,4.22
2023-01-07T13:08:58.842Z,4.10
2023-01-07T13:12:03.721Z,3.40
2023-01-07T13:14:41.431Z,4.45
2023-01-07T13:17:17.242Z,3.88
2023-01-07T13:19:46.813Z,4.13
2023-01-07T13:22:21.479Z,4.28
2023-01-07T13:25:13.663Z,4.13
2023-01-07T13:28:10.646Z,4.18
2023-01-07T13:30:52.997Z,3.72
2023-01-07T13:33:44.346Z,4.45
2023-01-07T13:36:30.171Z,3.72
2023-01-07T13:39:31.976Z,4.30
2023-01-07T13:42:28.220Z,4.00
2023-01-07T13:45:02.915Z,4.20
2023-01-07T13:47:45.894Z,4.35
2023-01-07T13:50:36.414Z,4.32
2023-01-07T13:53:31.239Z,4.38
2023-01-07T13:56:46.078Z,4.18
2023-01-07T13:59:32.264Z,4.25
2023-01-07T14:02:19.772Z,4.20
2023-01-07T14:05:04.481Z,4.65
2023-01-07T14:07:33.736Z,4.10
2023-01-07T14:10:04.641Z,4.00
2023-01-07T14:13:06.311Z,4.07
2023-01-07T14:16:12.877Z,4.00
2023-01-07T14:19:03.001Z,4.10
2023-01-07T14:21:51.062Z,4.55
2023-01-07T14:24:52.708Z,4.38
2023-01-07T14:27:42.531Z,4.40
2023-01-07T14:30:21.631Z,4.40
2023-01-07T14:33:03.293Z,4.50
2023-01-07T14:35:35.512Z,4.20
2023-01-07T14:38:42.343Z,4.32
2023-01-07T14:41:17.760Z,4.03
2023-01-07T14:44:03.851Z,4.60
2023-01-07T14:46:55.811Z,4.47
2023-01-07T14:49:47.490Z,4.20
2023-01-07T14:52:54.432Z,4.50
2023-01-07T14:55:50.947Z,4.47
2023-01-07T14:58:58.657Z,4.07
2023-01-07T15:02:13.082Z,4.25
2023-01-07T15:05:16.473Z,3.97
2023-01-07T15:07:50.079Z,4.47
2023-01-07T15:10:42.045Z,4.47
2023-01-07T15:13:34.849Z,5.55
2023-01-07T15:16:07.427Z,5.47
2023-01-07T15:18:47.174Z,4.82
2023-01-07T15:21:27.128Z,5.28
2023-01-07T15:24:04.803Z,10.10
2023-01-07T15:26:42.474Z,5.40
2023-01-07T15:29:18.612Z,4.50
2023-01-07T15:31:55.884Z,5.03
2023-01-07T15:34:26.793Z,5.07
2023-01-07T15:37:06.229Z,5.13
2023-01-07T15:39:40.386Z,5.80
2023-01-07T15:42:16.229Z,5.20
2023-01-07T15:44:44.601Z,4.45
2023-01-07T15:47:37.146Z,5.22
2023-01-07T15:50:27.441Z,4.95
2023-01-07T15:53:01.004Z,5.20
2023-01-07T15:55:33.618Z,5.60
2023-01-07T15:58:09.576Z,5.15
2023-01-07T16:00:38.015Z,6.40
2023-01-07T16:03:07.155Z,7.25
2023-01-07T16:05:39.436Z,5.82
2023-01-07T16:08:18.344Z,6.78
2023-01-07T16:11:00.134Z,5.82
2023-01-07T16:13:29.081Z,7.05
2023-01-07T16:16:06.657Z,5.78
2023-01-07T16:18:35.166Z,5.97
2023-01-07T16:21:06.663Z,6.03
2023-01-07T16:23:38.356Z,7.25
2023-01-07T16:26:09.021Z,7.10
2023-01-07T16:28:41.963Z,6.82
2023-01-07T16:31:14.462Z,6.63
2023-01-07T16:33:44.251Z,8.00
2023-01-07T16:36:19.279Z,7.55
2023-01-07T16:38:52.779Z,6.38
2023-01-07T16:41:22.651Z,7.00
2023-01-07T16:43:53.095Z,8.10
2023-01-07T16:46:27.116Z,7.15
2023-01-07T16:49:20.259Z,7.40
2023-01-07T16:51:51.709Z,6.57
2023-01-07T16:54:31.372Z,7.68
2023-01-07T16:57:01.549Z,7.57
2023-01-07T16:59:32.854Z,8.43
2023-01-07T17:02:15.506Z,7.93
2023-01-07T17:04:45.665Z,7.82
2023-01-07T17:07:21.972Z,8.93
2023-01-07T17:09:54.809Z,7.72
2023-01-07T17:12:36.674Z,7.10
2023-01-07T17:15:34.898Z,7.78
2023-01-07T17:18:29.155Z,7.22
2023-01-07T17:21:44.120Z,6.75
2023-01-07T17:24:48.031Z,7.60
2023-01-07T17:27:30.619Z,6.87
2023-01-07T17:30:03.785Z,7.45
2023-01-07T17:32:33.052Z,7.18
2023-01-07T17:35:05.290Z,7.60
2023-01-07T17:37:34.073Z,6.93
2023-01-07T17:40:02.678Z,7.10
2023-01-07T17:42:51.766Z,7.27
2023-01-07T17:45:37.882Z,7.30
2023-01-07T17:48:15.690Z,6.43
2023-01-07T17:50:45.096Z,7.17
2023-01-07T17:53:23.756Z,7.33
2023-01-07T17:55:52.998Z,6.80
2023-01-07T17:58:29.350Z,7.73
2023-01-07T18:00:59.154Z,8.68
2023-01-07T18:03:27.780Z,10.37
2023-01-07T18:05:58.049Z,10.57
2023-01-07T18:08:27.868Z,8.77
2023-01-07T18:11:15.021Z,10.10
2023-01-07T18:13:44.913Z,10.37
2023-01-07T18:16:15.540Z,6.70
2023-01-07T18:18:44.220Z,7.50
2023-01-07T18:21:13.486Z,7.63
2023-01-07T18:23:41.836Z,6.47
2023-01-07T18:26:10.258Z,6.97
2023-01-07T18:28:38.559Z,7.77
2023-01-07T18:31:12.788Z,7.20
2023-01-07T18:33:41.715Z,6.53
2023-01-07T18:36:10.829Z,6.73
2023-01-07T18:38:46.385Z,7.30
2023-01-07T18:41:21.287Z,7.07
2023-01-07T18:43:52.586Z,6.87
2023-01-07T18:46:22.404Z,7.30
2023-01-07T18:48:50.670Z,7.50
2023-01-07T18:51:19.039Z,6.50
2023-01-07T18:53:50.528Z,7.33
2023-01-07T18:56:21.106Z,7.00
2023-01-07T18:58:54.618Z,7.17
2023-01-07T19:01:25.346Z,6.37
2023-01-07T19:03:54.943Z,6.17
2023-01-07T19:06:23.236Z,7.00
2023-01-07T19:08:51.562Z,6.63
2023-01-07T19:11:20.870Z,5.03
2023-01-07T19:13:54.493Z,6.53
2023-01-07T19:16:30.452Z,6.13
2023-01-07T19:19:00.998Z,5.90
2023-01-07T19:21:29.247Z,5.10
2023-01-07T19:24:05.338Z,5.90
2023-01-07T19:26:35.339Z,7.03
2023-01-07T19:29:04.771Z,6.03
2023-01-07T19:31:36.530Z,6.00
2023-01-07T19:34:06.694Z,6.40
2023-01-07T19:36:35.181Z,6.63
2023-01-07T19:39:03.556Z,6.27
2023-01-07T19:41:33.061Z,6.80
2023-01-07T19:44:02.046Z,6.43
2023-01-07T19:46:34.469Z,6.00
2023-01-07T19:49:13.447Z,6.70
2023-01-07T19:51:42.950Z,7.33
2023-01-07T19:54:12.887Z,7.10
2023-01-07T19:56:41.380Z,6.77
2023-01-07T19:59:11.887Z,8.17
2023-01-07T20:01:40.712Z,8.20
2023-01-07T20:04:13.383Z,7.43
2023-01-07T20:06:41.807Z,6.30
2023-01-07T20:09:11.642Z,8.53
2023-01-07T20:11:42.580Z,8.57
2023-01-07T20:14:11.976Z,7.40
2023-01-07T20:16:42.099Z,7.10
2023-01-07T20:19:11.723Z,7.63
2023-01-07T20:21:42.283Z,7.87
2023-01-07T20:24:13.219Z,7.53
2023-01-07T20:26:45.186Z,8.47
2023-01-07T20:29:13.659Z,6.93
2023-01-07T20:31:41.742Z,7.03
2023-01-07T20:34:11.358Z,6.93
2023-01-07T20:36:47.944Z,6.90
2023-01-07T20:39:15.935Z,6.83
2023-01-07T20:41:43.951Z,7.80
2023-01-07T20:44:12.653Z,10.27
2023-01-07T20:46:40.815Z,8.40
2023-01-07T20:49:12.339Z,8.10
2023-01-07T20:51:40.464Z,7.27
2023-01-07T20:54:09.877Z,8.00
2023-01-07T20:56:37.934Z,8.00
2023-01-07T20:59:06.112Z,8.73
2023-01-07T21:01:34.425Z,8.23
2023-01-07T21:04:05.936Z,8.27
2023-01-07T21:06:37.235Z,24.13
2023-01-07T21:09:06.404Z,10.17
2023-01-07T21:11:35.971Z,10.90
2023-01-07T21:14:04.438Z,8.93
2023-01-07T21:16:38.021Z,7.50
2023-01-07T21:19:06.453Z,8.03
2023-01-07T21:21:34.940Z,10.10
2023-01-07T21:24:03.052Z,8.27
2023-01-07T21:26:31.474Z,6.50
2023-01-07T21:29:01.493Z,5.93
2023-01-07T21:31:29.928Z,6.50
2023-01-07T21:33:58.761Z,6.50
2023-01-07T21:36:28.435Z,6.60
2023-01-07T21:38:58.362Z,6.33
2023-01-07T21:41:31.030Z,5.80
2023-01-07T21:44:01.832Z,6.57
2023-01-07T21:46:30.393Z,6.43
2023-01-07T21:48:58.887Z,10.30
2023-01-07T21:51:34.260Z,8.30
2023-01-07T21:54:02.259Z,7.53
2023-01-07T21:56:36.723Z,8.53
2023-01-07T21:59:07.962Z,7.60
2023-01-07T22:01:36.602Z,7.87
2023-01-07T22:04:07.995Z,7.80
2023-01-07T22:06:37.565Z,7.67
2023-01-07T22:09:14.420Z,7.87
2023-01-07T22:11:44.099Z,7.83
2023-01-07T22:14:16.562Z,7.63
2023-01-07T22:16:46.936Z,7.73
2023-01-07T22:19:17.384Z,8.07
2023-01-07T22:21:53.206Z,13.17
2023-01-07T22:24:21.635Z,15.03
2023-01-07T22:26:49.757Z,12.37
2023-01-07T22:29:19.411Z,12.37
2023-01-07T22:31:50.037Z,8.77
2023-01-07T22:34:18.540Z,11.77
2023-01-07T22:36:54.374Z,10.57
2023-01-07T22:39:27.240Z,11.60
2023-01-07T22:42:00.613Z,8.40
2023-01-07T22:44:35.044Z,9.33
2023-01-07T22:47:04.408Z,9.57
2023-01-07T22:49:33.860Z,11.93
2023-01-07T22:52:12.158Z,10.43
2023-01-07T22:54:47.938Z,8.37
2023-01-07T22:57:22.443Z,7.93
2023-01-07T22:59:52.457Z,7.60
2023-01-07T23:02:20.687Z,7.73
2023-01-07T23:04:55.517Z,7.43
2023-01-07T23:07:31.324Z,7.93
2023-01-07T23:10:03.667Z,7.27
2023-01-07T23:12:32.147Z,7.27
2023-01-07T23:15:06.251Z,8.43
2023-01-07T23:17:34.937Z,7.60
2023-01-07T23:20:05.771Z,7.20
2023-01-07T23:22:34.312Z,6.83
2023-01-07T23:25:11.248Z,6.43
2023-01-07T23:27:39.747Z,8.17
2023-01-07T23:30:11.064Z,6.20
2023-01-07T23:32:39.547Z,7.83
2023-01-07T23:35:08.830Z,7.80
2023-01-07T23:37:37.310Z,7.30
2023-01-07T23:40:06.571Z,6.53
2023-01-07T23:42:35.046Z,6.37
2023-01-07T23:45:07.325Z,7.07
2023-01-07T23:47:37.120Z,7.23
2023-01-07T23:50:05.902Z,7.50
2023-01-07T23:52:35.400Z,7.30
2023-01-07T23:55:03.682Z,7.30
2023-01-07T23:57:32.014Z,7.93
